Time;durP1;ratioP1;P1;durP2;ratioP2;P2;SDS_P1;SDS_P2;PMS_P1;PMS_P2;Temp;Humidity;BMP_temperature;BMP_pressure;BME280_temperature;BME280_humidity;BME280_pressure;Samples;Min_cycle;Max_cycle;Signal;HPM_P1;HPM_P2
2023/03/16 00:00:32;;;;;;;12.70;7.80;;;;;;;;;;5109530;28;20474;-66
2023/03/16 00:02:58;;;;;;;14.63;8.63;;;;;;;;;;5108902;28;20501;-65
2023/03/16 00:05:25;;;;;;;10.93;7.93;;;;;;;;;;5116315;28;20484;-65
2023/03/16 00:07:51;;;;;;;12.83;8.30;;;;;;;;;;5123536;28;20890;-66
2023/03/16 00:10:18;;;;;;;17.37;8.10;;;;;;;;;;5102810;28;20444;-66
2023/03/16 00:12:44;;;;;;;11.00;8.07;;;;;;;;;;5108388;28;20474;-66
2023/03/16 00:15:12;;;;;;;13.50;8.00;;;;;;;;;;5095884;28;20462;-66
2023/03/16 00:17:39;;;;;;;15.37;7.47;;;;;;;;;;5103078;28;20474;-67
2023/03/16 00:20:06;;;;;;;9.43;7.00;;;;;;;;;;5118209;28;20448;-67
2023/03/16 00:22:32;;;;;;;12.50;7.37;;;;;;;;;;5122808;28;20493;-66
2023/03/16 00:24:59;;;;;;;12.83;7.90;;;;;;;;;;5123570;28;20486;-66
2023/03/16 00:27:31;;;;;;;14.83;7.03;;;;;;;;;;5104896;28;20482;-66
2023/03/16 00:29:57;;;;;;;10.13;7.50;;;;;;;;;;5094012;28;20486;-65
2023/03/16 00:32:26;;;;;;;10.20;6.80;;;;;;;;;;5098154;28;20935;-66
2023/03/16 00:34:52;;;;;;;13.57;6.47;;;;;;;;;;5102953;28;20483;-65
2023/03/16 00:37:19;;;;;;;7.87;5.93;;;;;;;;;;5115215;28;20781;-66
2023/03/16 00:39:46;;;;;;;8.60;6.00;;;;;;;;;;5112842;28;20457;-66
2023/03/16 00:42:14;;;;;;;14.20;7.10;;;;;;;;;;5121394;28;20919;-66
2023/03/16 00:44:41;;;;;;;11.23;6.23;;;;;;;;;;5108223;28;20462;-65
2023/03/16 00:47:08;;;;;;;7.73;4.80;;;;;;;;;;5101511;28;20561;-66
2023/03/16 00:49:36;;;;;;;8.43;5.80;;;;;;;;;;5101115;28;20658;-67
2023/03/16 00:52:03;;;;;;;6.57;4.47;;;;;;;;;;5122579;28;20486;-67
2023/03/16 00:54:31;;;;;;;10.17;6.20;;;;;;;;;;5121647;28;20465;-66
2023/03/16 00:56:58;;;;;;;8.60;5.57;;;;;;;;;;5087785;28;20487;-65
2023/03/16 00:59:25;;;;;;;7.17;5.93;;;;;;;;;;5100585;28;20748;-66
2023/03/16 01:01:51;;;;;;;5.77;4.47;;;;;;;;;;5102616;28;20572;-66
2023/03/16 01:04:18;;;;;;;7.73;5.40;;;;;;;;;;5099855;28;20514;-66
2023/03/16 01:06:46;;;;;;;9.73;6.27;;;;;;;;;;5096935;28;20481;-66
2023/03/16 01:09:13;;;;;;;7.73;4.60;;;;;;;;;;5111005;28;20666;-67
2023/03/16 01:11:41;;;;;;;8.10;4.83;;;;;;;;;;5099893;28;20486;-66
2023/03/16 01:14:08;;;;;;;7.40;4.63;;;;;;;;;;5098511;28;20457;-66
2023/03/16 01:16:34;;;;;;;6.33;5.73;;;;;;;;;;5097825;28;20477;-66
2023/03/16 01:19:01;;;;;;;6.47;4.30;;;;;;;;;;5102585;28;20470;-67
2023/03/16 01:21:27;;;;;;;5.43;3.47;;;;;;;;;;5101877;28;20564;-66
2023/03/16 01:23:55;;;;;;;8.40;4.27;;;;;;;;;;5110824;28;20450;-67
2023/03/16 01:26:24;;;;;;;6.80;4.30;;;;;;;;;;5109314;28;20507;-66
2023/03/16 01:28:50;;;;;;;5.80;4.03;;;;;;;;;;5102901;28;20462;-67
2023/03/16 01:31:16;;;;;;;6.67;4.07;;;;;;;;;;5098653;28;20556;-65
2023/03/16 01:33:43;;;;;;;5.77;4.00;;;;;;;;;;5110473;28;20464;-65
2023/03/16 01:36:11;;;;;;;4.63;4.07;;;;;;;;;;5106149;28;20502;-65
2023/03/16 01:38:37;;;;;;;14.77;5.03;;;;;;;;;;5117996;28;20474;-67
2023/03/16 01:41:05;;;;;;;6.97;5.03;;;;;;;;;;5107662;28;21056;-67
2023/03/16 01:43:33;;;;;;;6.10;4.90;;;;;;;;;;5106706;28;21081;-67
2023/03/16 01:46:20;;;;;;;7.20;5.03;;;;;;;;;;5097277;28;20540;-66
2023/03/16 01:48:56;;;;;;;7.00;4.93;;;;;;;;;;5093940;28;21007;-66
2023/03/16 01:51:23;;;;;;;9.10;5.67;;;;;;;;;;5106120;28;20981;-66
2023/03/16 01:53:52;;;;;;;7.10;5.03;;;;;;;;;;5107303;28;20917;-66
2023/03/16 01:56:23;;;;;;;7.33;5.33;;;;;;;;;;5104315;28;20471;-66
2023/03/16 01:58:50;;;;;;;9.00;6.00;;;;;;;;;;5096828;28;20455;-66
2023/03/16 02:01:17;;;;;;;12.37;6.23;;;;;;;;;;5107847;28;20473;-66
2023/03/16 02:03:44;;;;;;;7.10;5.40;;;;;;;;;;5108646;28;20502;-67
2023/03/16 02:06:11;;;;;;;10.13;6.07;;;;;;;;;;5111305;28;20974;-66
2023/03/16 02:08:39;;;;;;;11.03;6.30;;;;;;;;;;5109864;28;20523;-67
2023/03/16 02:11:06;;;;;;;7.80;5.87;;;;;;;;;;5113116;28;20505;-66
2023/03/16 02:13:35;;;;;;;9.37;5.37;;;;;;;;;;5099696;28;20548;-66
2023/03/16 02:16:02;;;;;;;9.13;5.87;;;;;;;;;;5097883;28;20479;-66
2023/03/16 02:18:29;;;;;;;10.03;5.77;;;;;;;;;;5101577;28;20838;-67
2023/03/16 02:20:58;;;;;;;10.80;6.10;;;;;;;;;;5113622;28;20554;-66
2023/03/16 02:23:25;;;;;;;8.03;5.73;;;;;;;;;;5096796;28;20509;-65
2023/03/16 02:25:55;;;;;;;13.63;6.60;;;;;;;;;;5100479;28;20476;-67
2023/03/16 02:28:25;;;;;;;8.07;5.80;;;;;;;;;;5115989;28;20464;-66
2023/03/16 02:30:53;;;;;;;9.33;6.30;;;;;;;;;;5107778;28;20874;-66
2023/03/16 02:33:21;;;;;;;10.30;5.70;;;;;;;;;;5114965;28;20489;-66
2023/03/16 02:35:47;;;;;;;9.97;5.80;;;;;;;;;;5112615;28;20906;-65
2023/03/16 02:38:14;;;;;;;8.10;4.93;;;;;;;;;;5110212;28;20462;-65
2023/03/16 02:40:44;;;;;;;6.93;5.97;;;;;;;;;;5099964;28;20491;-66
2023/03/16 02:43:11;;;;;;;11.57;5.47;;;;;;;;;;5082995;28;20487;-66
2023/03/16 02:45:39;;;;;;;6.83;5.47;;;;;;;;;;5092527;28;20551;-67
2023/03/16 02:48:13;;;;;;;12.03;6.47;;;;;;;;;;5100682;28;20537;-67
2023/03/16 02:50:42;;;;;;;6.00;5.30;;;;;;;;;;5100395;28;20490;-67
2023/03/16 02:53:09;;;;;;;6.43;5.53;;;;;;;;;;5103118;28;20534;-66
2023/03/16 02:55:36;;;;;;;5.57;4.73;;;;;;;;;;5109445;28;20471;-65
2023/03/16 02:58:02;;;;;;;12.20;5.10;;;;;;;;;;5121063;28;20479;-66
2023/03/16 03:00:29;;;;;;;7.53;5.30;;;;;;;;;;5118874;28;20500;-66
2023/03/16 03:02:55;;;;;;;10.00;5.70;;;;;;;;;;5102983;28;20481;-66
2023/03/16 03:05:23;;;;;;;9.60;6.07;;;;;;;;;;5095492;28;20559;-67
2023/03/16 03:07:50;;;;;;;7.60;5.37;;;;;;;;;;5114870;28;20458;-67
2023/03/16 03:10:16;;;;;;;9.77;5.50;;;;;;;;;;5109274;28;20469;-67
2023/03/16 03:12:43;;;;;;;12.20;6.00;;;;;;;;;;5110514;28;20486;-66
2023/03/16 03:15:10;;;;;;;8.70;5.23;;;;;;;;;;5097578;28;20447;-66
2023/03/16 03:17:37;;;;;;;5.90;4.70;;;;;;;;;;5097745;28;20444;-67
2023/03/16 03:20:12;;;;;;;8.93;5.43;;;;;;;;;;5101804;28;20462;-67
2023/03/16 03:22:40;;;;;;;6.17;4.70;;;;;;;;;;5103582;28;20483;-65
2023/03/16 03:25:07;;;;;;;7.63;6.07;;;;;;;;;;5079831;28;20456;-65
2023/03/16 03:27:34;;;;;;;8.90;5.83;;;;;;;;;;5099855;28;20455;-65
2023/03/16 03:30:01;;;;;;;9.37;5.40;;;;;;;;;;5098322;28;20456;-65
2023/03/16 03:32:27;;;;;;;10.10;5.57;;;;;;;;;;5101318;28;20507;-65
2023/03/16 03:34:53;;;;;;;7.60;5.80;;;;;;;;;;5116818;28;20530;-66
2023/03/16 03:37:20;;;;;;;8.20;4.87;;;;;;;;;;5113830;28;20898;-65
2023/03/16 03:39:48;;;;;;;6.83;5.40;;;;;;;;;;5103295;28;20466;-66
2023/03/16 03:42:14;;;;;;;10.40;5.70;;;;;;;;;;5104290;28;20485;-66
2023/03/16 03:44:41;;;;;;;8.13;5.30;;;;;;;;;;5101689;28;20483;-66
2023/03/16 03:47:07;;;;;;;7.10;6.00;;;;;;;;;;5103081;28;20925;-66
2023/03/16 03:49:33;;;;;;;7.77;5.27;;;;;;;;;;5119256;28;20760;-66
2023/03/16 03:52:03;;;;;;;6.20;5.03;;;;;;;;;;5104039;28;20482;-66
2023/03/16 03:54:30;;;;;;;7.93;5.40;;;;;;;;;;5104698;28;20815;-67
2023/03/16 03:56:57;;;;;;;7.53;5.07;;;;;;;;;;5109024;28;20494;-67
2023/03/16 03:59:24;;;;;;;8.67;5.70;;;;;;;;;;5112007;28;20538;-65
2023/03/16 04:01:52;;;;;;;14.50;6.53;;;;;;;;;;5102832;28;21007;-65
2023/03/16 04:04:19;;;;;;;11.80;5.60;;;;;;;;;;5087600;28;20487;-66
2023/03/16 04:06:45;;;;;;;8.13;5.20;;;;;;;;;;5111011;28;20483;-66
2023/03/16 04:09:11;;;;;;;9.90;5.67;;;;;;;;;;5113938;28;20451;-66
2023/03/16 04:11:38;;;;;;;9.13;5.30;;;;;;;;;;5121081;28;20470;-66
2023/03/16 04:14:06;;;;;;;9.63;5.83;;;;;;;;;;5123427;28;20951;-66
2023/03/16 04:16:33;;;;;;;10.10;6.00;;;;;;;;;;5123223;28;20477;-66
2023/03/16 04:19:00;;;;;;;11.30;5.97;;;;;;;;;;5124552;28;20474;-66
2023/03/16 04:21:27;;;;;;;7.93;6.10;;;;;;;;;;5097391;28;20486;-66
2023/03/16 04:23:53;;;;;;;7.13;5.80;;;;;;;;;;5104063;28;20548;-66
2023/03/16 04:26:20;;;;;;;12.97;6.37;;;;;;;;;;5110223;28;20475;-66
2023/03/16 04:28:47;;;;;;;11.27;5.40;;;;;;;;;;5108896;28;20708;-66
2023/03/16 04:31:14;;;;;;;7.43;5.57;;;;;;;;;;5113889;28;20485;-65
2023/03/16 04:33:42;;;;;;;9.57;4.80;;;;;;;;;;5105445;28;20472;-66
2023/03/16 04:36:08;;;;;;;7.73;5.70;;;;;;;;;;5110034;28;20482;-66
2023/03/16 04:38:35;;;;;;;10.93;5.87;;;;;;;;;;5103773;28;20463;-66
2023/03/16 04:41:02;;;;;;;10.20;5.17;;;;;;;;;;5112726;28;21002;-67
2023/03/16 04:43:28;;;;;;;5.73;4.97;;;;;;;;;;5099141;28;20484;-65
2023/03/16 04:45:55;;;;;;;9.10;6.00;;;;;;;;;;5102413;28;20475;-65
2023/03/16 04:48:24;;;;;;;7.37;5.47;;;;;;;;;;5117162;28;21008;-66
2023/03/16 04:50:51;;;;;;;8.23;5.83;;;;;;;;;;5099494;28;20468;-66
2023/03/16 04:53:17;;;;;;;9.30;6.77;;;;;;;;;;5100473;28;20466;-66
2023/03/16 04:55:44;;;;;;;6.97;5.00;;;;;;;;;;5099304;28;20503;-66
2023/03/16 04:58:12;;;;;;;8.57;5.17;;;;;;;;;;5112263;28;20486;-66
2023/03/16 05:00:39;;;;;;;7.87;5.87;;;;;;;;;;5118053;28;20478;-66
2023/03/16 05:03:06;;;;;;;14.00;5.83;;;;;;;;;;5104065;28;20503;-66
2023/03/16 05:05:34;;;;;;;7.87;6.03;;;;;;;;;;5101740;28;20475;-66
2023/03/16 05:08:01;;;;;;;8.63;5.87;;;;;;;;;;5102444;28;20503;-67
2023/03/16 05:10:27;;;;;;;9.63;6.20;;;;;;;;;;5099890;28;20471;-66
2023/03/16 05:12:54;;;;;;;12.10;6.40;;;;;;;;;;5109912;28;20444;-66
2023/03/16 05:15:20;;;;;;;6.30;5.30;;;;;;;;;;5097516;28;20475;-67
2023/03/16 05:17:46;;;;;;;10.07;5.60;;;;;;;;;;5100747;28;20484;-67
2023/03/16 05:20:13;;;;;;;6.17;5.10;;;;;;;;;;5096498;28;20435;-66
2023/03/16 05:22:42;;;;;;;8.17;6.27;;;;;;;;;;5097599;28;20474;-67
2023/03/16 05:25:13;;;;;;;8.30;5.90;;;;;;;;;;5106082;28;20487;-66
2023/03/16 05:27:40;;;;;;;11.53;6.33;;;;;;;;;;5097090;28;20507;-66
2023/03/16 05:30:07;;;;;;;6.40;5.57;;;;;;;;;;5100693;28;20459;-66
2023/03/16 05:32:34;;;;;;;7.73;6.70;;;;;;;;;;5109985;28;20865;-66
2023/03/16 05:35:02;;;;;;;7.13;5.30;;;;;;;;;;5119245;28;20440;-64
2023/03/16 05:37:28;;;;;;;7.30;5.20;;;;;;;;;;5112206;28;20490;-66
2023/03/16 05:39:57;;;;;;;8.57;5.50;;;;;;;;;;5103798;28;20455;-65
2023/03/16 05:42:25;;;;;;;8.70;5.80;;;;;;;;;;5092832;28;20483;-66
2023/03/16 05:44:52;;;;;;;10.17;5.77;;;;;;;;;;5098750;28;20479;-65
2023/03/16 05:47:18;;;;;;;9.17;5.93;;;;;;;;;;5101605;28;20506;-65
2023/03/16 05:49:45;;;;;;;13.63;5.50;;;;;;;;;;5105453;28;20515;-64
2023/03/16 05:52:12;;;;;;;6.97;4.83;;;;;;;;;;5088328;28;20505;-64
2023/03/16 05:54:39;;;;;;;10.00;3.60;;;;;;;;;;5105785;28;20457;-65
2023/03/16 05:57:06;;;;;;;5.57;3.97;;;;;;;;;;5102405;28;20503;-65
2023/03/16 05:59:33;;;;;;;5.03;4.10;;;;;;;;;;5100052;28;20487;-66
2023/03/16 06:01:59;;;;;;;7.10;3.50;;;;;;;;;;5097867;28;20456;-65
2023/03/16 06:04:26;;;;;;;5.17;3.60;;;;;;;;;;5104758;28;20937;-66
2023/03/16 06:06:52;;;;;;;4.90;3.43;;;;;;;;;;5097841;28;20552;-63
2023/03/16 06:09:19;;;;;;;6.10;3.63;;;;;;;;;;5096623;28;20452;-65
2023/03/16 06:11:45;;;;;;;6.07;3.77;;;;;;;;;;5085478;28;20479;-65
2023/03/16 06:14:13;;;;;;;6.20;3.43;;;;;;;;;;5094260;28;20484;-65
2023/03/16 06:16:39;;;;;;;5.47;3.50;;;;;;;;;;5108252;28;20592;-66
2023/03/16 06:19:06;;;;;;;10.87;4.57;;;;;;;;;;5082451;28;20471;-66
2023/03/16 06:21:32;;;;;;;6.33;3.27;;;;;;;;;;5089581;28;20506;-64
2023/03/16 06:23:59;;;;;;;5.40;3.47;;;;;;;;;;5120556;28;20873;-66
2023/03/16 06:26:25;;;;;;;7.70;3.80;;;;;;;;;;5116944;28;20564;-66
2023/03/16 06:28:52;;;;;;;3.60;3.13;;;;;;;;;;5121431;28;20690;-66
2023/03/16 06:31:19;;;;;;;6.80;3.10;;;;;;;;;;5120840;28;20513;-66
2023/03/16 06:33:46;;;;;;;8.70;3.70;;;;;;;;;;5121942;28;20463;-65
2023/03/16 06:36:13;;;;;;;6.83;3.87;;;;;;;;;;5120018;28;20485;-66
2023/03/16 06:38:40;;;;;;;7.70;3.83;;;;;;;;;;5120561;28;20476;-66
2023/03/16 06:41:06;;;;;;;7.03;3.47;;;;;;;;;;5119424;28;20509;-64
2023/03/16 06:43:34;;;;;;;5.60;3.20;;;;;;;;;;5120400;28;20481;-64
2023/03/16 06:46:02;;;;;;;4.67;3.53;;;;;;;;;;5120157;28;20552;-65
2023/03/16 06:48:30;;;;;;;4.67;3.00;;;;;;;;;;5119852;28;20451;-66
2023/03/16 06:50:56;;;;;;;7.33;3.70;;;;;;;;;;5120346;28;20472;-65
2023/03/16 06:53:23;;;;;;;4.70;3.27;;;;;;;;;;5120696;28;20433;-64
2023/03/16 06:55:50;;;;;;;7.80;3.60;;;;;;;;;;5120017;28;20557;-66
2023/03/16 06:58:16;;;;;;;6.97;3.77;;;;;;;;;;5124173;28;20470;-66
2023/03/16 07:00:42;;;;;;;3.67;3.30;;;;;;;;;;5123405;28;20508;-66
2023/03/16 07:03:09;;;;;;;4.25;3.50;;;;;;;;;;5124359;28;20454;-66
2023/03/16 07:05:37;;;;;;;6.70;3.70;;;;;;;;;;5120484;28;20470;-66
2023/03/16 07:08:04;;;;;;;5.57;2.93;;;;;;;;;;5125055;28;21250;-66
2023/03/16 07:10:31;;;;;;;9.50;3.70;;;;;;;;;;5123971;28;20474;-66
2023/03/16 07:12:57;;;;;;;4.70;3.37;;;;;;;;;;5124068;28;20486;-66
2023/03/16 07:15:25;;;;;;;5.10;4.13;;;;;;;;;;5124022;28;20473;-65
2023/03/16 07:17:52;;;;;;;6.57;3.37;;;;;;;;;;5124803;28;20458;-66
2023/03/16 07:20:19;;;;;;;8.07;3.57;;;;;;;;;;5123496;28;20461;-66
2023/03/16 07:22:46;;;;;;;8.80;3.83;;;;;;;;;;5125007;28;20470;-66
2023/03/16 07:25:13;;;;;;;5.37;3.40;;;;;;;;;;5123320;28;20466;-66
2023/03/16 07:27:42;;;;;;;5.47;3.27;;;;;;;;;;5124507;28;20485;-66
2023/03/16 07:30:10;;;;;;;5.73;3.20;;;;;;;;;;5122716;28;20468;-66
2023/03/16 07:32:37;;;;;;;4.47;3.30;;;;;;;;;;5124225;28;20463;-67
2023/03/16 07:35:04;;;;;;;10.33;2.77;;;;;;;;;;5124148;28;20477;-66
2023/03/16 07:37:31;;;;;;;5.17;3.43;;;;;;;;;;5123574;28;20529;-66
2023/03/16 07:39:58;;;;;;;5.97;2.73;;;;;;;;;;5123937;28;20439;-66
2023/03/16 07:42:25;;;;;;;4.40;2.70;;;;;;;;;;5123497;28;20513;-67
2023/03/16 07:44:51;;;;;;;8.60;3.03;;;;;;;;;;5108509;28;20619;-66
2023/03/16 07:47:18;;;;;;;4.43;2.93;;;;;;;;;;5122928;28;20478;-65
2023/03/16 07:49:44;;;;;;;4.63;2.70;;;;;;;;;;5125022;28;20435;-65
2023/03/16 07:52:12;;;;;;;4.60;2.47;;;;;;;;;;5112253;28;21032;-66
2023/03/16 07:54:38;;;;;;;6.07;2.67;;;;;;;;;;5102010;28;20447;-67
2023/03/16 07:57:06;;;;;;;5.20;2.60;;;;;;;;;;5091216;28;20463;-66
2023/03/16 07:59:33;;;;;;;4.10;3.17;;;;;;;;;;5097075;28;20954;-67
2023/03/16 08:01:59;;;;;;;4.03;2.57;;;;;;;;;;5093734;28;20498;-66
2023/03/16 08:04:26;;;;;;;5.50;2.87;;;;;;;;;;5096123;28;20502;-66
2023/03/16 08:06:58;;;;;;;3.43;2.77;;;;;;;;;;5096940;28;20476;-65
2023/03/16 08:09:24;;;;;;;5.20;2.70;;;;;;;;;;5092591;28;20801;-66
2023/03/16 08:11:51;;;;;;;7.63;2.30;;;;;;;;;;5094082;28;20479;-67
2023/03/16 08:14:19;;;;;;;5.03;2.50;;;;;;;;;;5097494;28;20478;-67
2023/03/16 08:16:46;;;;;;;4.93;2.73;;;;;;;;;;5095763;28;20498;-65
2023/03/16 08:19:12;;;;;;;4.93;2.33;;;;;;;;;;5100266;28;20459;-68
2023/03/16 08:21:39;;;;;;;2.30;1.90;;;;;;;;;;5094382;28;20471;-67
2023/03/16 08:24:06;;;;;;;5.20;2.33;;;;;;;;;;5094099;28;20949;-66
2023/03/16 08:26:32;;;;;;;6.30;2.47;;;;;;;;;;5101134;28;20471;-66
2023/03/16 08:29:02;;;;;;;3.43;2.60;;;;;;;;;;5100601;28;20512;-67
2023/03/16 08:31:33;;;;;;;3.97;2.90;;;;;;;;;;5097892;28;20464;-67
2023/03/16 08:34:00;;;;;;;3.27;2.20;;;;;;;;;;5101552;28;20935;-66
2023/03/16 08:36:27;;;;;;;4.20;2.70;;;;;;;;;;5097079;28;20475;-67
2023/03/16 08:38:54;;;;;;;3.70;2.27;;;;;;;;;;5100809;28;20440;-67
2023/03/16 08:41:21;;;;;;;4.33;2.50;;;;;;;;;;5088985;28;20465;-67
2023/03/16 08:43:48;;;;;;;6.90;2.03;;;;;;;;;;5091126;28;20488;-67
2023/03/16 08:46:14;;;;;;;3.93;1.90;;;;;;;;;;5090347;28;20499;-67
2023/03/16 08:48:42;;;;;;;4.83;2.90;;;;;;;;;;5090955;28;20802;-67
2023/03/16 08:51:10;;;;;;;3.10;2.30;;;;;;;;;;5095809;28;20496;-67
2023/03/16 08:53:36;;;;;;;3.50;2.20;;;;;;;;;;5097276;28;20892;-68
2023/03/16 08:56:05;;;;;;;5.40;3.00;;;;;;;;;;5093502;28;20499;-67
2023/03/16 08:58:32;;;;;;;3.20;2.13;;;;;;;;;;5094126;28;20462;-66
2023/03/16 09:00:59;;;;;;;3.33;2.47;;;;;;;;;;5096786;28;20474;-67
2023/03/16 09:03:26;;;;;;;3.57;2.27;;;;;;;;;;5094041;28;20447;-66
2023/03/16 09:05:53;;;;;;;4.50;2.50;;;;;;;;;;5092720;28;20473;-66
2023/03/16 09:08:20;;;;;;;5.87;2.87;;;;;;;;;;5096421;28;20471;-68
2023/03/16 09:10:47;;;;;;;3.70;2.30;;;;;;;;;;5090933;28;21119;-67
2023/03/16 09:13:13;;;;;;;4.57;2.47;;;;;;;;;;5092991;28;20471;-67
2023/03/16 09:15:40;;;;;;;5.43;2.70;;;;;;;;;;5090848;28;20976;-67
2023/03/16 09:18:07;;;;;;;5.20;2.63;;;;;;;;;;5092943;28;20535;-67
2023/03/16 09:20:33;;;;;;;3.27;2.20;;;;;;;;;;5095856;28;20467;-68
2023/03/16 09:23:01;;;;;;;8.80;2.60;;;;;;;;;;5096433;28;20432;-67
2023/03/16 09:25:27;;;;;;;3.50;2.50;;;;;;;;;;5093190;28;20464;-66
2023/03/16 09:27:54;;;;;;;2.70;2.40;;;;;;;;;;5100390;28;20463;-68
2023/03/16 09:30:20;;;;;;;3.60;2.40;;;;;;;;;;5093809;28;20451;-66
2023/03/16 09:32:47;;;;;;;3.80;2.60;;;;;;;;;;5093972;28;20524;-67
2023/03/16 09:35:14;;;;;;;3.40;2.43;;;;;;;;;;5096725;28;20984;-67
2023/03/16 09:37:40;;;;;;;3.37;2.70;;;;;;;;;;5092649;28;20462;-67
2023/03/16 09:40:20;;;;;;;7.13;3.00;;;;;;;;;;5106887;28;20443;-67
2023/03/16 09:42:52;;;;;;;4.23;2.67;;;;;;;;;;5121676;28;20506;-67
2023/03/16 09:45:22;;;;;;;4.77;2.80;;;;;;;;;;5104647;28;20519;-66
2023/03/16 09:47:50;;;;;;;4.17;2.13;;;;;;;;;;5113899;28;20442;-67
2023/03/16 09:50:20;;;;;;;5.47;2.90;;;;;;;;;;5120392;28;20533;-66
2023/03/16 09:52:50;;;;;;;4.67;2.50;;;;;;;;;;5120872;28;20503;-67
2023/03/16 09:55:24;;;;;;;4.33;2.63;;;;;;;;;;5121133;28;20515;-68
2023/03/16 10:06:12;;;;;;;6.63;2.00;;;;;;;;;;5120385;28;21071;-67
2023/03/16 10:08:40;;;;;;;5.63;2.70;;;;;;;;;;5120861;28;20919;-68
2023/03/16 10:11:25;;;;;;;5.10;3.20;;;;;;;;;;5120692;28;20520;-66
2023/03/16 10:13:54;;;;;;;4.87;3.37;;;;;;;;;;5121180;28;20446;-68
2023/03/16 10:16:22;;;;;;;4.73;3.00;;;;;;;;;;5119583;28;20509;-67
2023/03/16 10:18:51;;;;;;;5.57;2.50;;;;;;;;;;5121688;28;20461;-68
2023/03/16 10:21:19;;;;;;;4.87;2.70;;;;;;;;;;5120299;28;20546;-67
2023/03/16 10:23:47;;;;;;;4.37;2.40;;;;;;;;;;5121118;28;20770;-68
2023/03/16 10:26:15;;;;;;;3.63;2.30;;;;;;;;;;5119600;28;20483;-68
2023/03/16 10:28:44;;;;;;;4.07;2.80;;;;;;;;;;5120945;28;20475;-66
2023/03/16 10:31:12;;;;;;;4.57;3.00;;;;;;;;;;5119062;28;20480;-68
2023/03/16 10:33:39;;;;;;;6.90;3.20;;;;;;;;;;5120448;28;20438;-66
2023/03/16 10:36:12;;;;;;;3.37;2.63;;;;;;;;;;5119494;28;20489;-67
2023/03/16 10:38:41;;;;;;;5.40;2.40;;;;;;;;;;5119726;28;20435;-67
2023/03/16 10:41:19;;;;;;;4.10;3.03;;;;;;;;;;5120358;28;21060;-67
2023/03/16 10:43:46;;;;;;;4.07;3.00;;;;;;;;;;5118750;28;20482;-67
2023/03/16 10:46:14;;;;;;;3.30;3.00;;;;;;;;;;5105433;28;20850;-67
2023/03/16 10:48:41;;;;;;;4.43;2.57;;;;;;;;;;5120836;28;20430;-68
2023/03/16 10:51:10;;;;;;;3.53;2.60;;;;;;;;;;5119884;28;20482;-67
2023/03/16 10:53:39;;;;;;;4.53;2.30;;;;;;;;;;5120503;28;20435;-67
2023/03/16 10:56:10;;;;;;;3.60;2.40;;;;;;;;;;5119715;28;20474;-67
2023/03/16 10:58:39;;;;;;;4.40;3.23;;;;;;;;;;5120237;28;20455;-69
2023/03/16 11:01:10;;;;;;;4.40;3.00;;;;;;;;;;5119016;28;20489;-68
2023/03/16 11:03:41;;;;;;;2.80;2.30;;;;;;;;;;5120640;28;20996;-69
2023/03/16 11:06:08;;;;;;;3.90;2.63;;;;;;;;;;5119420;28;20475;-69
2023/03/16 11:08:36;;;;;;;4.77;2.63;;;;;;;;;;5100589;28;20496;-68
2023/03/16 11:11:08;;;;;;;6.10;2.73;;;;;;;;;;5100207;28;21118;-68
2023/03/16 11:13:36;;;;;;;5.73;2.33;;;;;;;;;;5100290;28;20458;-68
2023/03/16 11:16:06;;;;;;;4.67;2.40;;;;;;;;;;5104713;28;20521;-68
2023/03/16 11:18:35;;;;;;;3.40;2.53;;;;;;;;;;5120359;28;20431;-69
2023/03/16 11:21:06;;;;;;;3.83;2.40;;;;;;;;;;5119584;28;20474;-66
2023/03/16 11:23:34;;;;;;;3.83;2.93;;;;;;;;;;5120816;28;20435;-69
2023/03/16 11:26:02;;;;;;;3.83;2.70;;;;;;;;;;5119718;28;20587;-69
2023/03/16 11:28:34;;;;;;;4.23;2.50;;;;;;;;;;5119299;28;20462;-68
2023/03/16 11:31:07;;;;;;;4.07;2.47;;;;;;;;;;5119504;28;20482;-68
2023/03/16 11:33:34;;;;;;;4.70;2.90;;;;;;;;;;5120757;28;20430;-68
2023/03/16 11:36:05;;;;;;;3.77;2.90;;;;;;;;;;5118589;28;20477;-68
2023/03/16 11:38:37;;;;;;;3.10;2.37;;;;;;;;;;5120671;28;21020;-69
2023/03/16 11:41:04;;;;;;;6.60;2.67;;;;;;;;;;5119405;28;20502;-67
2023/03/16 11:43:45;;;;;;;5.60;2.63;;;;;;;;;;5122911;28;20458;-69
2023/03/16 11:46:15;;;;;;;3.60;2.73;;;;;;;;;;5123578;28;20474;-69
2023/03/16 11:48:42;;;;;;;3.97;2.70;;;;;;;;;;5124789;28;20808;-69
2023/03/16 11:51:14;;;;;;;3.47;2.40;;;;;;;;;;5123607;28;20474;-69
2023/03/16 11:53:46;;;;;;;2.47;2.27;;;;;;;;;;5125034;28;20454;-68
2023/03/16 11:56:18;;;;;;;4.30;2.60;;;;;;;;;;5123658;28;20533;-69
2023/03/16 11:58:53;;;;;;;5.00;3.00;;;;;;;;;;5123135;28;20453;-69
2023/03/16 12:01:22;;;;;;;5.40;2.97;;;;;;;;;;5123196;28;20503;-69
2023/03/16 12:04:04;;;;;;;3.27;2.50;;;;;;;;;;5124147;28;20467;-68
2023/03/16 12:06:33;;;;;;;3.57;2.80;;;;;;;;;;5119724;28;20496;-68
2023/03/16 12:09:07;;;;;;;3.87;2.37;;;;;;;;;;5123992;28;20427;-68
2023/03/16 12:11:37;;;;;;;4.57;2.80;;;;;;;;;;5123228;28;20548;-69
2023/03/16 12:14:12;;;;;;;3.00;2.70;;;;;;;;;;5108359;28;20486;-67
2023/03/16 12:16:43;;;;;;;4.20;2.77;;;;;;;;;;5112272;28;20474;-69
2023/03/16 12:19:14;;;;;;;4.13;2.90;;;;;;;;;;5114654;28;20455;-69
2023/03/16 12:21:43;;;;;;;4.47;2.57;;;;;;;;;;5103060;28;20507;-67
2023/03/16 12:24:14;;;;;;;5.10;2.80;;;;;;;;;;5100869;28;20455;-68
2023/03/16 12:26:42;;;;;;;3.00;2.00;;;;;;;;;;5099111;28;20538;-68
2023/03/16 12:29:15;;;;;;;4.67;2.37;;;;;;;;;;5094608;28;20490;-69
2023/03/16 12:31:44;;;;;;;2.70;2.13;;;;;;;;;;5101462;28;20475;-69
2023/03/16 12:34:16;;;;;;;3.67;2.30;;;;;;;;;;5098378;28;20462;-67
2023/03/16 12:36:56;;;;;;;3.10;2.37;;;;;;;;;;5096134;28;20533;-70
2023/03/16 12:39:38;;;;;;;2.93;2.50;;;;;;;;;;5090787;28;20428;-67
2023/03/16 12:42:13;;;;;;;3.90;2.50;;;;;;;;;;5098365;28;20482;-68
2023/03/16 12:44:45;;;;;;;5.40;2.90;;;;;;;;;;5122115;28;20454;-68
2023/03/16 12:47:18;;;;;;;4.20;2.83;;;;;;;;;;5116269;28;20921;-68
2023/03/16 12:49:45;;;;;;;2.43;2.23;;;;;;;;;;5096827;28;20451;-67
2023/03/16 12:52:12;;;;;;;3.20;2.33;;;;;;;;;;5121930;28;20575;-68
2023/03/16 12:54:48;;;;;;;4.50;2.70;;;;;;;;;;5116676;28;20440;-69
2023/03/16 12:57:17;;;;;;;2.77;2.10;;;;;;;;;;5114096;28;20482;-68
2023/03/16 12:59:46;;;;;;;3.00;2.20;;;;;;;;;;5101018;28;20459;-67
2023/03/16 13:02:15;;;;;;;2.87;2.10;;;;;;;;;;5093403;28;21030;-68
2023/03/16 13:04:43;;;;;;;3.40;2.40;;;;;;;;;;5112560;28;20462;-66
2023/03/16 13:07:15;;;;;;;3.70;2.43;;;;;;;;;;5106374;28;20505;-68
2023/03/16 13:09:44;;;;;;;3.27;2.37;;;;;;;;;;5102893;28;20806;-67
2023/03/16 13:12:22;;;;;;;2.70;2.40;;;;;;;;;;5101243;28;20533;-68
2023/03/16 13:14:53;;;;;;;2.47;2.27;;;;;;;;;;5102215;28;20447;-70
2023/03/16 13:17:23;;;;;;;3.17;2.40;;;;;;;;;;5100883;28;20494;-67
2023/03/16 13:20:00;;;;;;;3.80;2.57;;;;;;;;;;5101870;28;20465;-67
2023/03/16 13:22:28;;;;;;;2.73;2.03;;;;;;;;;;5101349;28;20474;-68
2023/03/16 13:24:55;;;;;;;2.97;2.07;;;;;;;;;;5102559;28;20486;-67
2023/03/16 13:27:27;;;;;;;2.60;2.20;;;;;;;;;;5100639;28;20608;-68
2023/03/16 13:29:55;;;;;;;4.00;2.00;;;;;;;;;;5101160;28;20546;-67
2023/03/16 13:32:21;;;;;;;4.23;2.13;;;;;;;;;;5101243;28;20518;-67
2023/03/16 13:34:49;;;;;;;2.60;1.63;;;;;;;;;;5098344;28;20455;-68
2023/03/16 13:37:18;;;;;;;2.50;2.30;;;;;;;;;;5089259;28;20487;-67
2023/03/16 13:39:52;;;;;;;3.10;2.10;;;;;;;;;;5096480;28;20451;-67
2023/03/16 13:42:19;;;;;;;3.33;2.13;;;;;;;;;;5100489;28;20547;-67
2023/03/16 13:44:47;;;;;;;4.10;2.20;;;;;;;;;;5100427;28;20471;-68
2023/03/16 13:47:14;;;;;;;4.53;2.50;;;;;;;;;;5101331;28;20472;-68
2023/03/16 13:49:46;;;;;;;4.47;2.40;;;;;;;;;;5101657;28;20440;-68
2023/03/16 13:52:16;;;;;;;2.83;2.37;;;;;;;;;;5100379;28;20483;-68
2023/03/16 13:54:43;;;;;;;3.83;2.20;;;;;;;;;;5101233;28;20828;-66
2023/03/16 13:57:11;;;;;;;5.87;2.20;;;;;;;;;;5099508;28;20501;-66
2023/03/16 13:59:42;;;;;;;3.37;3.07;;;;;;;;;;5098363;28;20980;-66
2023/03/16 14:02:16;;;;;;;5.03;4.27;;;;;;;;;;5092830;28;20487;-67
2023/03/16 14:04:43;;;;;;;3.23;2.03;;;;;;;;;;5097391;28;20478;-67
2023/03/16 14:07:16;;;;;;;3.73;2.63;;;;;;;;;;5090653;28;20503;-68
2023/03/16 14:09:43;;;;;;;3.37;2.03;;;;;;;;;;5098703;28;20450;-68
2023/03/16 14:12:13;;;;;;;4.80;4.40;;;;;;;;;;5097310;28;20533;-67
2023/03/16 14:14:40;;;;;;;2.20;2.00;;;;;;;;;;5093120;28;20461;-68
2023/03/16 14:17:10;;;;;;;1.83;1.73;;;;;;;;;;5099676;28;20500;-68
2023/03/16 14:19:42;;;;;;;5.93;2.90;;;;;;;;;;5099624;28;20439;-67
2023/03/16 14:22:13;;;;;;;3.47;2.60;;;;;;;;;;5100139;28;20498;-66
2023/03/16 14:24:40;;;;;;;4.37;2.87;;;;;;;;;;5100773;28;20454;-67
2023/03/16 14:27:15;;;;;;;2.60;2.17;;;;;;;;;;5091433;28;20486;-68
2023/03/16 14:29:42;;;;;;;2.97;2.27;;;;;;;;;;5100115;28;20454;-67
2023/03/16 14:32:20;;;;;;;6.20;2.40;;;;;;;;;;5100333;28;20484;-67
2023/03/16 14:34:50;;;;;;;2.40;1.80;;;;;;;;;;5099257;28;20439;-68
2023/03/16 14:37:18;;;;;;;4.03;2.40;;;;;;;;;;5098503;28;20604;-68
2023/03/16 14:39:44;;;;;;;2.47;2.13;;;;;;;;;;5097432;28;20448;-68
2023/03/16 14:42:14;;;;;;;3.57;1.60;;;;;;;;;;5098395;28;20504;-67
2023/03/16 14:44:41;;;;;;;3.60;2.10;;;;;;;;;;5100378;28;20448;-67
2023/03/16 14:47:08;;;;;;;3.60;1.83;;;;;;;;;;5099421;28;20484;-68
2023/03/16 14:49:36;;;;;;;5.20;2.60;;;;;;;;;;5098776;28;20501;-67
2023/03/16 14:52:06;;;;;;;2.53;1.63;;;;;;;;;;5098914;28;20486;-67
2023/03/16 14:54:32;;;;;;;3.60;2.00;;;;;;;;;;5098937;28;20439;-67